aviador You're here:

KFAY Decoded Metar

FAYETTEVILLE in NC, USA
Report Time2017-08-18 09:53:00
UTC Time2017-08-18 10:48:00
Flight Rules vfr VFR
WindCalm
Visibility9999 m
Phenomena:N/A
Clouds:N/A
CeilingNone
Temp23°C (ISA +8)
Dew Point23°C (100% RH)
QNH1013 hPa
Density Alt1,522 ft
Elevation180 ft
Report Wrong Elevation
Raw Report
METAR KFAY 180953Z 00000KT 10SM CLR 23/23 A2992 RMK AO2 SLP125 T02330233=

Extra information for KFAY:More info

Metar Taf Metar & Taf Last 4 Metars F.Rules Stats Wind Profile Meteogram Temp Stats Airport Information Weather charts Add Link Nearby VenuesMetar ALERT Operation Metar Decoded Social comments

AIRNAV info for KFAY